createdAt,value
2023-01-19T00:00:28.720Z,65.47
2023-01-19T00:02:55.511Z,66.14
2023-01-19T00:05:22.223Z,64.14
2023-01-19T00:07:48.906Z,61.49
2023-01-19T00:10:15.731Z,62.97
2023-01-19T00:12:42.299Z,63.05
2023-01-19T00:15:09.431Z,63.29
2023-01-19T00:17:36.075Z,62.73
2023-01-19T00:20:03.943Z,61.60
2023-01-19T00:22:30.501Z,61.55
2023-01-19T00:24:57.045Z,63.80
2023-01-19T00:27:23.559Z,63.10
2023-01-19T00:29:50.065Z,62.37
2023-01-19T00:32:17.908Z,62.75
2023-01-19T00:34:49.487Z,62.91
2023-01-19T00:37:17.386Z,62.92
2023-01-19T00:39:45.143Z,63.70
2023-01-19T00:42:31.649Z,63.82
2023-01-19T00:44:58.346Z,64.26
2023-01-19T00:47:25.419Z,64.93
2023-01-19T00:49:52.050Z,66.09
2023-01-19T00:52:18.863Z,66.57
2023-01-19T00:54:45.452Z,66.57
2023-01-19T00:57:12.721Z,67.17
2023-01-19T00:59:39.276Z,67.50
2023-01-19T01:02:05.962Z,67.24
2023-01-19T01:04:32.627Z,68.24
2023-01-19T01:06:59.165Z,67.71
2023-01-19T01:09:25.957Z,68.29
2023-01-19T01:11:52.509Z,67.74
2023-01-19T01:14:19.440Z,69.02
2023-01-19T01:16:46.076Z,68.68
2023-01-19T01:19:12.683Z,69.35
2023-01-19T01:21:39.256Z,68.75
2023-01-19T01:24:06.445Z,69.29
2023-01-19T01:26:33.051Z,69.34
2023-01-19T01:28:59.629Z,68.74
2023-01-19T01:31:26.325Z,68.79
2023-01-19T01:33:52.919Z,68.63
2023-01-19T01:36:19.489Z,68.70
2023-01-19T01:38:46.319Z,67.68
2023-01-19T01:41:12.875Z,66.01
2023-01-19T01:43:54.115Z,66.90
2023-01-19T01:46:20.922Z,64.61
2023-01-19T01:49:14.662Z,65.29
2023-01-19T01:51:46.884Z,64.41
2023-01-19T01:54:23.041Z,64.38
2023-01-19T01:56:52.783Z,64.33
2023-01-19T01:59:39.406Z,64.01
2023-01-19T02:02:30.048Z,65.32
2023-01-19T02:05:04.073Z,64.47
2023-01-19T02:08:01.768Z,63.63
2023-01-19T02:10:46.844Z,64.45
2023-01-19T02:13:23.031Z,65.10
2023-01-19T02:15:55.024Z,65.36
2023-01-19T02:18:24.233Z,64.93
2023-01-19T02:20:58.116Z,64.95
2023-01-19T02:23:32.470Z,64.65
2023-01-19T02:26:00.769Z,65.32
2023-01-19T02:28:28.432Z,64.97
2023-01-19T02:30:55.274Z,65.11
2023-01-19T02:33:22.111Z,64.38
2023-01-19T02:35:51.829Z,64.51
2023-01-19T02:38:20.759Z,64.29
2023-01-19T02:40:48.697Z,64.09
2023-01-19T02:43:17.820Z,64.44
2023-01-19T02:45:44.623Z,65.36
2023-01-19T02:48:11.381Z,64.44
2023-01-19T02:50:41.998Z,64.15
2023-01-19T02:53:30.477Z,63.32
2023-01-19T02:56:19.163Z,62.62
2023-01-19T02:59:13.391Z,63.49
2023-01-19T03:01:55.931Z,64.20
2023-01-19T03:04:40.757Z,63.07
2023-01-19T03:07:30.660Z,61.44
2023-01-19T03:10:12.866Z,63.56
2023-01-19T03:12:52.757Z,64.14
2023-01-19T03:15:26.047Z,65.87
2023-01-19T03:17:53.910Z,65.11
2023-01-19T03:20:25.433Z,65.28
2023-01-19T03:23:00.632Z,64.28
2023-01-19T03:25:31.332Z,65.54
2023-01-19T03:27:58.159Z,64.14
2023-01-19T03:30:31.003Z,65.18
2023-01-19T03:33:03.397Z,65.09
2023-01-19T03:35:34.972Z,64.86
2023-01-19T03:38:06.664Z,64.29
2023-01-19T03:40:35.334Z,64.21
2023-01-19T03:43:03.620Z,64.97
2023-01-19T03:45:35.610Z,64.68
2023-01-19T03:48:02.864Z,64.29
2023-01-19T03:50:30.906Z,63.48
2023-01-19T03:53:10.432Z,65.43
2023-01-19T03:55:39.591Z,64.18
2023-01-19T03:58:06.471Z,63.70
2023-01-19T04:00:33.932Z,64.76
2023-01-19T04:03:00.862Z,63.23
2023-01-19T04:05:27.667Z,62.70
2023-01-19T04:07:54.671Z,63.01
2023-01-19T04:10:21.437Z,62.99
2023-01-19T04:12:48.749Z,64.43
2023-01-19T04:15:16.017Z,63.67
2023-01-19T04:17:42.509Z,63.02
2023-01-19T04:20:09.679Z,62.56
2023-01-19T04:22:36.434Z,63.83
2023-01-19T04:25:03.389Z,63.87
2023-01-19T04:27:29.986Z,64.05
2023-01-19T04:29:56.792Z,63.80
2023-01-19T04:32:23.356Z,63.77
2023-01-19T04:34:49.887Z,63.83
2023-01-19T04:37:16.393Z,63.92
2023-01-19T04:39:43.376Z,63.80
2023-01-19T04:42:10.062Z,63.65
2023-01-19T04:44:36.598Z,64.20
2023-01-19T04:47:03.466Z,64.53
2023-01-19T04:49:30.235Z,63.58
2023-01-19T04:51:56.829Z,64.38
2023-01-19T04:54:23.518Z,64.27
2023-01-19T04:56:50.179Z,64.20
2023-01-19T04:59:16.778Z,64.61
2023-01-19T05:01:43.365Z,64.79
2023-01-19T05:04:09.934Z,64.22
2023-01-19T05:06:37.304Z,64.17
2023-01-19T05:09:04.523Z,65.27
2023-01-19T05:11:31.045Z,65.16
2023-01-19T05:13:57.608Z,65.19
2023-01-19T05:16:24.223Z,64.77
2023-01-19T05:18:50.985Z,65.41
2023-01-19T05:21:17.619Z,66.03
2023-01-19T05:23:44.741Z,65.47
2023-01-19T05:26:11.345Z,65.19
2023-01-19T05:28:38.136Z,65.82
2023-01-19T05:31:04.903Z,65.81
2023-01-19T05:33:31.810Z,65.75
2023-01-19T05:35:58.373Z,65.28
2023-01-19T05:38:34.618Z,65.87
2023-01-19T05:41:01.876Z,65.53
2023-01-19T05:43:28.444Z,65.82
2023-01-19T05:45:55.027Z,67.01
2023-01-19T05:48:21.540Z,65.95
2023-01-19T05:50:49.622Z,66.26
2023-01-19T05:53:17.203Z,66.08
2023-01-19T05:55:43.724Z,66.84
2023-01-19T05:58:10.338Z,65.88
2023-01-19T06:00:36.960Z,66.12
2023-01-19T06:03:04.169Z,66.41
2023-01-19T06:05:31.007Z,66.37
2023-01-19T06:07:57.758Z,67.37
2023-01-19T06:10:24.352Z,66.71
2023-01-19T06:12:52.570Z,67.03
2023-01-19T06:15:19.541Z,66.22
2023-01-19T06:17:46.261Z,67.59
2023-01-19T06:20:14.184Z,66.60
2023-01-19T06:22:40.717Z,67.43
2023-01-19T06:25:07.549Z,67.12
2023-01-19T06:27:34.131Z,67.35
2023-01-19T06:30:00.812Z,66.76
2023-01-19T06:32:27.384Z,67.86
2023-01-19T06:34:54.198Z,67.58
2023-01-19T06:37:21.119Z,67.62
2023-01-19T06:39:47.679Z,67.56
2023-01-19T06:42:14.416Z,67.35
2023-01-19T06:44:47.296Z,67.72
2023-01-19T06:47:16.392Z,68.44
2023-01-19T06:49:43.409Z,68.13
2023-01-19T06:52:11.481Z,67.99
2023-01-19T06:54:38.263Z,67.82
2023-01-19T06:57:04.976Z,68.12
2023-01-19T06:59:31.900Z,68.12
2023-01-19T07:01:59.140Z,68.64
2023-01-19T07:04:26.976Z,68.45
2023-01-19T07:06:53.544Z,68.97
2023-01-19T07:09:20.488Z,69.01
2023-01-19T07:11:48.431Z,68.45
2023-01-19T07:14:15.570Z,68.91
2023-01-19T07:16:42.419Z,69.23
2023-01-19T07:19:10.808Z,68.92
2023-01-19T07:21:37.702Z,68.80
2023-01-19T07:24:04.334Z,68.65
2023-01-19T07:26:30.956Z,68.70
2023-01-19T07:28:57.569Z,69.31
2023-01-19T07:31:24.152Z,69.26
2023-01-19T07:33:50.834Z,68.47
2023-01-19T07:36:17.452Z,68.95
2023-01-19T07:38:44.179Z,68.37
2023-01-19T07:41:10.877Z,68.03
2023-01-19T07:43:37.596Z,68.86
2023-01-19T07:46:06.572Z,69.00
2023-01-19T07:48:33.442Z,67.63
2023-01-19T07:51:04.323Z,68.46
2023-01-19T07:53:31.645Z,68.94
2023-01-19T07:55:58.322Z,68.52
2023-01-19T07:58:26.605Z,66.91
2023-01-19T08:00:53.560Z,67.03
2023-01-19T08:03:20.446Z,66.98
2023-01-19T08:05:51.605Z,67.82
2023-01-19T08:08:18.664Z,67.83
2023-01-19T08:10:45.288Z,67.18
2023-01-19T08:13:12.146Z,67.94
2023-01-19T08:15:38.663Z,67.98
2023-01-19T08:18:05.843Z,67.08
2023-01-19T08:20:32.636Z,67.66
2023-01-19T08:23:03.099Z,67.10
2023-01-19T08:25:37.897Z,67.22
2023-01-19T08:28:06.488Z,66.62
2023-01-19T08:30:33.435Z,67.65
2023-01-19T08:33:08.249Z,67.29
2023-01-19T08:35:43.301Z,66.68
2023-01-19T08:38:10.652Z,67.55
2023-01-19T08:40:40.287Z,66.66
2023-01-19T08:43:09.498Z,66.92
2023-01-19T08:45:38.060Z,66.55
2023-01-19T08:48:06.249Z,66.78
2023-01-19T08:50:34.067Z,66.52
2023-01-19T08:53:02.835Z,67.06
2023-01-19T08:55:30.154Z,65.37
2023-01-19T08:57:58.171Z,65.96
2023-01-19T09:00:25.463Z,66.30
2023-01-19T09:02:52.260Z,65.88
2023-01-19T09:05:19.569Z,66.19
2023-01-19T09:07:48.148Z,66.80
2023-01-19T09:10:16.054Z,66.22
2023-01-19T09:12:43.930Z,66.40
2023-01-19T09:15:13.940Z,66.29
2023-01-19T09:17:43.815Z,67.16
2023-01-19T09:20:10.897Z,67.05
2023-01-19T09:22:38.608Z,66.94
2023-01-19T09:25:07.334Z,66.39
2023-01-19T09:27:34.851Z,67.49
2023-01-19T09:30:01.510Z,67.22
2023-01-19T09:32:28.038Z,66.56
2023-01-19T09:34:56.541Z,67.20
2023-01-19T09:37:23.069Z,66.91
2023-01-19T09:39:49.637Z,66.29
2023-01-19T09:42:36.011Z,66.84
2023-01-19T09:45:07.081Z,65.31
2023-01-19T09:47:36.665Z,65.42
2023-01-19T09:50:07.586Z,65.56
2023-01-19T09:52:39.604Z,65.63
2023-01-19T09:55:30.371Z,66.68
2023-01-19T09:57:56.967Z,64.39
2023-01-19T10:00:25.698Z,64.20
2023-01-19T10:02:59.464Z,65.94
2023-01-19T10:05:31.930Z,64.50
2023-01-19T10:08:20.013Z,64.85
2023-01-19T10:10:52.530Z,64.52
2023-01-19T10:13:28.931Z,64.95
2023-01-19T10:16:01.367Z,64.82
2023-01-19T10:18:43.260Z,63.33
2023-01-19T10:21:16.330Z,64.86
2023-01-19T10:23:52.316Z,63.39
2023-01-19T10:26:26.945Z,64.02
2023-01-19T10:28:57.775Z,63.65
2023-01-19T10:31:25.143Z,63.58
2023-01-19T10:33:52.674Z,63.05
2023-01-19T10:36:26.079Z,63.16
2023-01-19T10:38:52.655Z,63.30
2023-01-19T10:41:26.077Z,63.74
2023-01-19T10:44:03.435Z,63.47
2023-01-19T10:46:47.236Z,62.92
2023-01-19T10:49:45.977Z,62.79
2023-01-19T10:52:33.127Z,64.12
2023-01-19T10:55:01.976Z,62.97
2023-01-19T10:57:34.523Z,61.88
2023-01-19T11:00:01.162Z,64.66
2023-01-19T11:02:30.335Z,62.85
2023-01-19T11:04:59.532Z,64.11
2023-01-19T11:07:25.981Z,63.02
2023-01-19T11:10:11.691Z,62.04
2023-01-19T11:12:43.571Z,60.73
2023-01-19T11:15:16.095Z,63.98
2023-01-19T11:17:48.189Z,64.34
2023-01-19T11:20:24.216Z,62.13
2023-01-19T11:23:06.193Z,64.35
2023-01-19T11:25:35.586Z,64.49
2023-01-19T11:28:03.270Z,63.56
2023-01-19T11:30:30.504Z,61.92
2023-01-19T11:32:57.015Z,62.01
2023-01-19T11:35:39.417Z,63.07
2023-01-19T11:38:27.566Z,63.31
2023-01-19T11:40:59.728Z,63.54
2023-01-19T11:43:43.550Z,63.50
2023-01-19T11:46:16.500Z,61.16
2023-01-19T11:48:49.905Z,61.02
2023-01-19T11:51:22.142Z,58.35
2023-01-19T11:53:52.442Z,60.13
2023-01-19T11:56:23.731Z,59.34
2023-01-19T11:58:50.316Z,61.24
2023-01-19T12:01:27.806Z,61.60
2023-01-19T12:04:10.033Z,59.62
2023-01-19T12:06:42.892Z,62.16
2023-01-19T12:09:22.311Z,58.49
2023-01-19T12:12:13.527Z,58.64
2023-01-19T12:15:05.416Z,60.62
2023-01-19T12:17:36.769Z,61.41
2023-01-19T12:20:37.181Z,59.01
2023-01-19T12:23:17.662Z,62.17
2023-01-19T12:25:59.690Z,61.86
2023-01-19T12:28:32.814Z,60.52
2023-01-19T12:31:01.303Z,61.87
2023-01-19T12:33:37.573Z,60.87
2023-01-19T12:36:38.668Z,58.88
2023-01-19T12:39:21.346Z,59.56
2023-01-19T12:41:51.186Z,61.75
2023-01-19T12:44:24.056Z,60.19
2023-01-19T12:47:06.419Z,60.23
2023-01-19T12:49:38.737Z,62.28
2023-01-19T12:52:20.123Z,61.07
2023-01-19T12:54:59.802Z,62.40
2023-01-19T12:57:34.803Z,62.56
2023-01-19T13:00:30.083Z,63.75
2023-01-19T13:02:57.784Z,63.27
2023-01-19T13:05:39.352Z,64.47
2023-01-19T13:08:06.270Z,63.66
2023-01-19T13:10:51.313Z,63.11
2023-01-19T13:13:24.383Z,63.14
2023-01-19T13:15:54.191Z,64.74
2023-01-19T13:18:25.271Z,64.02
2023-01-19T13:21:03.514Z,63.50
2023-01-19T13:23:49.939Z,62.83
2023-01-19T13:26:19.469Z,63.12
2023-01-19T13:28:50.064Z,63.59
2023-01-19T13:31:17.974Z,64.09
2023-01-19T13:33:56.291Z,64.47
2023-01-19T13:36:32.543Z,64.30
2023-01-19T13:39:03.583Z,63.96
2023-01-19T13:41:35.472Z,64.19
2023-01-19T13:44:07.244Z,62.63
2023-01-19T13:46:34.714Z,63.64
2023-01-19T13:49:22.482Z,63.33
2023-01-19T13:52:17.258Z,63.19
2023-01-19T13:54:51.260Z,63.52
2023-01-19T13:57:26.546Z,62.84
2023-01-19T14:00:14.167Z,63.26
2023-01-19T14:03:09.532Z,63.45
2023-01-19T14:05:39.084Z,63.11
2023-01-19T14:08:08.770Z,64.34
2023-01-19T14:10:38.750Z,64.56
2023-01-19T14:13:16.954Z,64.29
2023-01-19T14:15:44.471Z,64.30
2023-01-19T14:18:14.005Z,64.22
2023-01-19T14:20:41.307Z,64.53
2023-01-19T14:23:41.901Z,64.82
2023-01-19T14:26:45.061Z,65.35
2023-01-19T14:29:33.108Z,64.24
2023-01-19T14:32:13.775Z,64.48
2023-01-19T14:34:41.249Z,64.39
2023-01-19T14:37:20.980Z,65.08
2023-01-19T14:40:14.815Z,64.02
2023-01-19T14:43:03.067Z,63.74
2023-01-19T14:45:39.300Z,63.09
2023-01-19T14:48:18.046Z,63.36
2023-01-19T14:50:57.653Z,62.75
2023-01-19T14:53:30.079Z,64.35
2023-01-19T14:56:00.574Z,63.30
2023-01-19T14:58:31.294Z,64.01
2023-01-19T15:00:58.217Z,63.82
2023-01-19T15:03:35.020Z,62.85
2023-01-19T15:06:19.335Z,63.29
2023-01-19T15:08:47.174Z,64.06
2023-01-19T15:11:22.726Z,62.73
2023-01-19T15:13:49.947Z,62.11
2023-01-19T15:16:16.834Z,61.89
2023-01-19T15:18:43.445Z,62.99
2023-01-19T15:21:19.995Z,62.90
2023-01-19T15:23:47.587Z,63.34
2023-01-19T15:26:17.836Z,63.81
2023-01-19T15:28:45.469Z,64.27
2023-01-19T15:31:16.493Z,62.98
2023-01-19T15:33:43.421Z,64.08
2023-01-19T15:36:18.649Z,63.98
2023-01-19T15:38:46.196Z,63.79
2023-01-19T15:41:14.423Z,63.04
2023-01-19T15:43:41.000Z,62.95
2023-01-19T15:46:07.903Z,63.35
2023-01-19T15:48:34.536Z,61.76
2023-01-19T15:51:01.088Z,62.89
2023-01-19T15:53:27.863Z,62.35
2023-01-19T15:55:56.865Z,62.21
2023-01-19T15:58:24.651Z,61.18
2023-01-19T16:00:56.463Z,62.27
2023-01-19T16:03:24.540Z,62.49
2023-01-19T16:05:51.342Z,61.44
2023-01-19T16:08:18.344Z,61.79
2023-01-19T16:10:44.935Z,61.85
2023-01-19T16:13:11.906Z,61.86
2023-01-19T16:15:39.794Z,61.35
2023-01-19T16:18:06.356Z,61.52
2023-01-19T16:20:32.945Z,58.55
2023-01-19T16:23:13.871Z,62.11
2023-01-19T16:25:41.390Z,61.38
2023-01-19T16:28:08.435Z,59.51
2023-01-19T16:30:35.085Z,60.93
2023-01-19T16:33:01.715Z,60.58
2023-01-19T16:35:28.244Z,62.11
2023-01-19T16:37:54.765Z,63.10
2023-01-19T16:40:21.419Z,60.70
2023-01-19T16:42:48.047Z,60.41
2023-01-19T16:45:14.754Z,61.03
2023-01-19T16:47:41.362Z,61.63
2023-01-19T16:50:11.701Z,60.09
2023-01-19T16:52:38.731Z,60.89
2023-01-19T16:55:09.318Z,60.13
2023-01-19T16:57:38.848Z,60.57
2023-01-19T17:00:09.391Z,60.60
2023-01-19T17:02:36.357Z,59.68
2023-01-19T17:05:02.942Z,60.70
2023-01-19T17:07:29.494Z,59.33
2023-01-19T17:09:56.241Z,60.52
2023-01-19T17:12:22.816Z,61.15
2023-01-19T17:14:49.339Z,60.99
2023-01-19T17:17:15.927Z,59.68
2023-01-19T17:19:42.494Z,59.39
2023-01-19T17:22:09.168Z,61.28
2023-01-19T17:24:35.725Z,60.86
2023-01-19T17:27:02.317Z,60.21
2023-01-19T17:29:28.919Z,60.64
2023-01-19T17:31:55.467Z,61.05
2023-01-19T17:34:22.021Z,60.93
2023-01-19T17:36:51.342Z,61.15
2023-01-19T17:39:18.605Z,60.92
2023-01-19T17:41:45.248Z,61.10
2023-01-19T17:44:11.843Z,61.71
2023-01-19T17:46:38.639Z,62.10
2023-01-19T17:49:07.196Z,62.53
2023-01-19T17:51:34.479Z,61.28
2023-01-19T17:54:01.225Z,62.41
2023-01-19T17:56:30.317Z,59.52
2023-01-19T17:58:58.110Z,61.88
2023-01-19T18:01:30.100Z,60.48
2023-01-19T18:03:57.847Z,61.42
2023-01-19T18:06:25.032Z,63.58
2023-01-19T18:08:52.523Z,61.79
2023-01-19T18:11:20.436Z,61.71
2023-01-19T18:13:49.069Z,61.26
2023-01-19T18:16:21.780Z,62.47
2023-01-19T18:18:49.726Z,60.66
2023-01-19T18:21:17.616Z,61.38
2023-01-19T18:23:45.149Z,60.44
2023-01-19T18:26:17.300Z,62.08
2023-01-19T18:28:43.881Z,60.00
2023-01-19T18:31:14.539Z,61.11
2023-01-19T18:33:41.553Z,61.63
2023-01-19T18:36:08.775Z,64.00
2023-01-19T18:38:35.937Z,65.39
2023-01-19T18:41:08.721Z,64.57
2023-01-19T18:43:35.420Z,63.75
2023-01-19T18:46:02.247Z,63.09
2023-01-19T18:48:28.878Z,63.45
2023-01-19T18:50:55.856Z,61.64
2023-01-19T18:53:22.960Z,62.00
2023-01-19T18:55:53.993Z,62.33
2023-01-19T18:58:21.007Z,63.30
2023-01-19T19:00:48.131Z,63.65
2023-01-19T19:03:14.818Z,63.90
2023-01-19T19:05:41.436Z,63.44
2023-01-19T19:08:08.672Z,63.89
2023-01-19T19:10:35.270Z,65.17
2023-01-19T19:13:02.301Z,66.42
2023-01-19T19:15:28.961Z,65.29
2023-01-19T19:17:55.582Z,64.86
2023-01-19T19:20:23.415Z,65.88
2023-01-19T19:22:51.713Z,63.84
2023-01-19T19:25:18.458Z,63.44
2023-01-19T19:27:47.819Z,66.43
2023-01-19T19:30:15.023Z,64.30
2023-01-19T19:32:41.939Z,63.83
2023-01-19T19:35:08.948Z,64.26
2023-01-19T19:37:35.469Z,64.23
2023-01-19T19:40:01.973Z,64.27
2023-01-19T19:42:30.141Z,64.19
2023-01-19T19:44:56.720Z,62.78
2023-01-19T19:47:24.503Z,61.07
2023-01-19T19:49:51.117Z,62.39
2023-01-19T19:52:17.760Z,62.85
2023-01-19T19:54:45.112Z,61.03
2023-01-19T19:57:11.665Z,62.08
2023-01-19T19:59:38.247Z,62.15
2023-01-19T20:02:05.031Z,61.47
2023-01-19T20:04:31.659Z,61.93
2023-01-19T20:07:00.105Z,62.48
2023-01-19T20:09:26.847Z,61.38
2023-01-19T20:11:53.465Z,62.40
2023-01-19T20:14:21.156Z,61.23
2023-01-19T20:16:47.814Z,61.69
2023-01-19T20:19:14.432Z,61.76
2023-01-19T20:21:41.965Z,61.53
2023-01-19T20:24:13.937Z,60.28
2023-01-19T20:26:44.217Z,61.22
2023-01-19T20:29:11.447Z,60.91
2023-01-19T20:31:45.965Z,62.38
2023-01-19T20:34:14.901Z,63.56
2023-01-19T20:36:42.305Z,63.70
2023-01-19T20:39:10.994Z,64.30
2023-01-19T20:41:43.555Z,63.45
2023-01-19T20:44:12.591Z,63.44
2023-01-19T20:46:39.474Z,65.50
2023-01-19T20:49:06.493Z,65.45
2023-01-19T20:51:34.987Z,64.02
2023-01-19T20:54:01.568Z,64.93
2023-01-19T20:56:28.132Z,65.99
2023-01-19T20:58:54.690Z,66.73
2023-01-19T21:01:24.229Z,66.59
2023-01-19T21:03:51.795Z,66.37
2023-01-19T21:06:19.861Z,66.88
2023-01-19T21:08:47.087Z,66.70
2023-01-19T21:11:13.589Z,65.88
2023-01-19T21:13:40.139Z,67.88
2023-01-19T21:16:07.194Z,65.91
2023-01-19T21:18:33.801Z,65.89
2023-01-19T21:21:00.345Z,66.22
2023-01-19T21:23:27.837Z,65.41
2023-01-19T21:25:57.571Z,66.05
2023-01-19T21:28:24.866Z,66.57
2023-01-19T21:30:53.300Z,66.06
2023-01-19T21:33:21.286Z,68.16
2023-01-19T21:35:56.018Z,67.19
2023-01-19T21:38:24.733Z,67.06
2023-01-19T21:40:51.319Z,65.86
2023-01-19T21:43:20.045Z,66.30
2023-01-19T21:45:48.530Z,67.98
2023-01-19T21:48:16.097Z,66.81
2023-01-19T21:50:42.826Z,66.90
2023-01-19T21:53:11.323Z,66.75
2023-01-19T21:55:39.703Z,68.09
2023-01-19T21:58:06.246Z,67.66
2023-01-19T22:00:32.856Z,67.56
2023-01-19T22:03:04.282Z,68.18
2023-01-19T22:05:36.730Z,67.62
2023-01-19T22:08:04.464Z,66.78
2023-01-19T22:10:30.977Z,66.95
2023-01-19T22:12:57.606Z,66.46
2023-01-19T22:15:24.174Z,66.91
2023-01-19T22:17:50.675Z,68.20
2023-01-19T22:20:17.431Z,66.82
2023-01-19T22:22:43.994Z,67.64
2023-01-19T22:25:10.655Z,67.16
2023-01-19T22:27:38.722Z,69.00
2023-01-19T22:30:05.927Z,68.70
2023-01-19T22:32:32.577Z,69.52
2023-01-19T22:34:59.343Z,68.13
2023-01-19T22:37:25.853Z,68.34
2023-01-19T22:39:53.123Z,69.80
2023-01-19T22:42:19.668Z,70.00
2023-01-19T22:44:46.936Z,71.82
2023-01-19T22:47:13.453Z,72.30
2023-01-19T22:49:40.730Z,70.67
2023-01-19T22:52:07.624Z,71.69
2023-01-19T22:54:34.217Z,70.35
2023-01-19T22:57:00.832Z,68.35
2023-01-19T22:59:27.411Z,70.53
2023-01-19T23:01:54.085Z,69.96
2023-01-19T23:04:20.928Z,71.65
2023-01-19T23:06:50.424Z,69.62
2023-01-19T23:09:18.073Z,70.16
2023-01-19T23:11:51.225Z,69.57
2023-01-19T23:14:20.763Z,69.89
2023-01-19T23:16:47.487Z,70.57
2023-01-19T23:19:14.469Z,72.45
2023-01-19T23:21:41.504Z,71.54
2023-01-19T23:24:08.509Z,72.77
2023-01-19T23:26:38.365Z,71.72
2023-01-19T23:29:08.455Z,72.17
2023-01-19T23:31:37.173Z,71.75
2023-01-19T23:34:06.358Z,72.04
2023-01-19T23:36:36.075Z,72.69
2023-01-19T23:39:09.933Z,73.22
2023-01-19T23:41:36.408Z,71.56
2023-01-19T23:44:03.549Z,72.34
2023-01-19T23:46:30.199Z,72.04
2023-01-19T23:48:57.759Z,71.55
2023-01-19T23:51:27.664Z,72.63
2023-01-19T23:53:54.774Z,74.43
2023-01-19T23:56:22.689Z,74.34
2023-01-19T23:58:54.615Z,73.27
